26°C Temp
20°C Dewpoint
70% Humidity
Temperature
5 KM/H
3 MPH
3 KTS
90°
Due East

Wind Speed
Clear
Conditions
Pressure 1016.92 (hPa) - 30.03 (in)
Visibility 6.2 (mi) - 10.0 (km)

Current Conditions
LIMP
Location 40(km)
Metar :LIMP 170950Z 09003KT 010V170 CAVOK 26/20 Q1017
Sat 17th August 10:50 am

Airport
  Metar Aviation API Data Provided by https://www.checkwx.com/ PHP scripts by weather34.com ©2019